Time;durP1;ratioP1;P1;durP2;ratioP2;P2;SDS_P1;SDS_P2;PMS_P1;PMS_P2;Temp;Humidity;BMP_temperature;BMP_pressure;BME280_temperature;BME280_humidity;BME280_pressure;Samples;Min_cycle;Max_cycle;Signal;HPM_P1;HPM_P2
2021/09/29 00:04:23;;;;;;;10.68;7.00;;;;;;;9.26;70.00;100662.52;254142;1107;115551;-67
2021/09/29 00:09:26;;;;;;;11.88;7.20;;;;;;;9.24;69.90;100663.73;253737;1101;115119;-67
2021/09/29 00:14:35;;;;;;;10.48;7.80;;;;;;;9.24;70.03;100658.41;253430;1107;115386;-67
2021/09/29 00:19:39;;;;;;;11.58;8.38;;;;;;;9.22;70.35;100663.12;254041;1107;115322;-68
2021/09/29 00:24:43;;;;;;;9.90;8.05;;;;;;;9.20;70.19;100662.50;253511;1101;115012;-69
2021/09/29 00:29:51;;;;;;;14.25;8.08;;;;;;;9.13;70.36;100659.86;253484;1100;115050;-67
2021/09/29 00:34:55;;;;;;;10.50;7.03;;;;;;;9.07;70.17;100650.84;253523;1107;137108;-68
2021/09/29 00:40:00;;;;;;;13.55;7.33;;;;;;;9.02;70.33;100645.30;255319;1106;115400;-67
2021/09/29 00:45:06;;;;;;;11.50;7.10;;;;;;;8.99;70.62;100647.55;253558;1100;115559;-68
2021/09/29 00:50:10;;;;;;;12.53;8.08;;;;;;;8.93;70.64;100643.84;254724;1107;115522;-69
2021/09/29 00:55:14;;;;;;;16.90;7.48;;;;;;;8.87;70.01;100647.30;254504;1107;116448;-68
2021/09/29 01:00:18;;;;;;;11.85;7.03;;;;;;;8.82;70.90;100633.81;254418;1106;115671;-68
2021/09/29 01:05:23;;;;;;;8.67;6.47;;;;;;;8.74;70.26;100631.34;254754;1107;115892;-67
2021/09/29 01:10:41;;;;;;;13.20;7.43;;;;;;;8.73;70.47;100638.49;254997;1107;114807;-67
2021/09/29 01:15:49;;;;;;;10.65;7.48;;;;;;;8.69;71.08;100633.77;253454;1100;115389;-70
2021/09/29 01:21:06;;;;;;;10.40;6.68;;;;;;;8.60;71.13;100637.63;256224;1106;115382;-69
2021/09/29 01:26:15;;;;;;;10.40;6.33;;;;;;;8.56;70.31;100625.78;255996;1106;115573;-67
2021/09/29 01:31:20;;;;;;;8.37;6.10;;;;;;;8.55;71.21;100616.98;256353;1107;115577;-67
2021/09/29 01:36:25;;;;;;;21.63;8.50;;;;;;;8.54;70.56;100611.88;255674;1107;115366;-67
2021/09/29 01:41:30;;;;;;;9.90;6.43;;;;;;;8.49;70.69;100624.93;256361;1107;114889;-67
2021/09/29 01:46:33;;;;;;;9.33;6.28;;;;;;;8.43;70.96;100630.02;255368;1107;116254;-67
2021/09/29 01:51:40;;;;;;;14.17;7.97;;;;;;;8.38;70.58;100623.66;255574;1107;116111;-67
2021/09/29 01:56:45;;;;;;;10.70;7.38;;;;;;;8.34;70.84;100625.88;254395;1102;116077;-66
2021/09/29 02:01:49;;;;;;;10.30;7.85;;;;;;;8.25;70.95;100629.72;253301;1107;115339;-66
2021/09/29 02:06:54;;;;;;;15.93;7.13;;;;;;;8.22;70.69;100623.98;253207;1106;114722;-66
2021/09/29 02:11:57;;;;;;;10.30;7.88;;;;;;;8.17;71.26;100616.59;254715;1107;114984;-68
2021/09/29 02:17:01;;;;;;;9.98;8.73;;;;;;;8.12;71.08;100624.33;253294;1106;114883;-67
2021/09/29 02:22:04;;;;;;;9.13;6.70;;;;;;;8.08;71.29;100617.77;253625;1102;115361;-66
2021/09/29 02:27:08;;;;;;;8.45;7.20;;;;;;;8.05;71.24;100615.51;253748;1107;115280;-68
2021/09/29 02:32:12;;;;;;;11.28;6.65;;;;;;;8.00;71.21;100610.78;254755;1107;115589;-67
2021/09/29 02:37:18;;;;;;;9.85;7.80;;;;;;;7.88;71.73;100612.37;253489;1107;115261;-67
2021/09/29 02:42:21;;;;;;;12.13;10.95;;;;;;;7.80;71.32;100609.86;253947;1107;115966;-67
2021/09/29 02:47:25;;;;;;;10.95;8.60;;;;;;;7.75;71.59;100621.06;254147;1107;116322;-67
2021/09/29 02:52:28;;;;;;;15.13;8.63;;;;;;;7.74;72.19;100605.33;253458;1107;116616;-67
2021/09/29 02:57:33;;;;;;;12.70;7.68;;;;;;;7.69;72.04;100602.44;253637;1107;116208;-66
2021/09/29 03:02:37;;;;;;;11.80;7.37;;;;;;;7.59;72.33;100599.33;254943;1107;115550;-69
2021/09/29 03:07:40;;;;;;;10.13;8.25;;;;;;;7.56;72.21;100608.49;253671;1107;115375;-69
2021/09/29 03:12:44;;;;;;;10.40;7.83;;;;;;;7.53;72.65;100602.75;253175;1107;115496;-66
2021/09/29 03:17:47;;;;;;;16.30;7.75;;;;;;;7.52;72.25;100599.28;255025;1107;118328;-66
2021/09/29 03:22:52;;;;;;;8.20;7.20;;;;;;;7.49;72.71;100601.49;253915;1107;115062;-66
2021/09/29 03:27:56;;;;;;;18.53;8.77;;;;;;;7.38;72.91;100606.30;255290;1107;115253;-67
2021/09/29 03:32:59;;;;;;;9.85;8.58;;;;;;;7.34;72.77;100594.44;256224;1106;115378;-66
2021/09/29 03:38:04;;;;;;;16.25;9.53;;;;;;;7.27;72.59;100590.94;255343;1107;115611;-66
2021/09/29 03:43:08;;;;;;;9.90;8.20;;;;;;;7.23;72.92;100592.33;254584;1107;115604;-66
2021/09/29 03:48:11;;;;;;;9.90;7.88;;;;;;;7.16;72.77;100590.63;254135;1107;114707;-69
2021/09/29 03:53:14;;;;;;;10.70;7.48;;;;;;;7.09;73.62;100588.73;254662;1106;116130;-67
2021/09/29 03:58:18;;;;;;;14.50;9.13;;;;;;;7.02;73.08;100587.88;254108;1107;115603;-67
2021/09/29 04:03:22;;;;;;;11.15;8.80;;;;;;;6.99;72.83;100585.61;255097;1106;115770;-67
2021/09/29 04:08:26;;;;;;;11.08;8.58;;;;;;;6.95;73.63;100584.34;254222;1107;118454;-67
2021/09/29 04:13:31;;;;;;;13.13;10.50;;;;;;;6.90;73.44;100584.09;255021;1101;116132;-67
2021/09/29 04:18:35;;;;;;;11.58;8.88;;;;;;;6.85;73.76;100589.14;255114;1107;116224;-66
2021/09/29 04:23:40;;;;;;;14.80;10.68;;;;;;;6.80;73.32;100586.23;253866;1107;115907;-66
2021/09/29 04:28:44;;;;;;;13.87;9.60;;;;;;;6.77;73.51;100583.95;253803;1107;116067;-67
2021/09/29 04:33:47;;;;;;;11.33;10.20;;;;;;;6.80;74.43;100582.76;254037;1107;115635;-65
2021/09/29 04:38:51;;;;;;;22.00;11.83;;;;;;;6.80;73.95;100574.81;254100;1107;116084;-66
2021/09/29 04:43:55;;;;;;;18.30;12.90;;;;;;;6.75;74.02;100581.48;254484;1102;116311;-65
2021/09/29 04:48:58;;;;;;;16.55;11.10;;;;;;;6.76;74.79;100574.36;253682;1103;116022;-66
2021/09/29 04:54:02;;;;;;;12.28;9.25;;;;;;;6.79;74.29;100578.47;254935;1107;116353;-66
2021/09/29 04:59:08;;;;;;;13.50;10.38;;;;;;;6.84;74.30;100574.24;253964;1107;115787;-67
2021/09/29 05:04:13;;;;;;;15.25;10.88;;;;;;;6.87;74.06;100570.39;255094;1107;116156;-66
2021/09/29 05:09:16;;;;;;;16.13;10.83;;;;;;;6.88;74.28;100570.20;254835;1103;115457;-67
2021/09/29 05:14:20;;;;;;;15.03;11.00;;;;;;;6.92;74.63;100568.00;253569;1107;116183;-67
2021/09/29 05:19:24;;;;;;;19.23;11.38;;;;;;;7.01;74.35;100574.81;253365;1107;115215;-67
2021/09/29 05:24:27;;;;;;;16.95;10.00;;;;;;;7.10;75.06;100574.47;256154;1107;116196;-68
2021/09/29 05:29:32;;;;;;;15.18;11.63;;;;;;;7.19;74.34;100576.98;256215;1106;115675;-68
2021/09/29 05:34:35;;;;;;;17.93;10.83;;;;;;;7.33;74.70;100573.44;256004;1106;115452;-68
2021/09/29 05:39:39;;;;;;;16.80;10.08;;;;;;;7.44;74.90;100568.41;256201;1106;117664;-69
2021/09/29 05:44:41;;;;;;;21.48;11.15;;;;;;;7.60;74.83;100569.95;254052;1106;115873;-69
2021/09/29 05:49:44;;;;;;;15.38;11.05;;;;;;;7.76;75.07;100569.62;255677;1107;115753;-69
2021/09/29 05:54:47;;;;;;;15.78;11.53;;;;;;;7.93;75.77;100569.31;253913;1107;115439;-68
2021/09/29 05:59:51;;;;;;;16.23;10.87;;;;;;;8.10;76.03;100562.63;254252;1107;115632;-68
2021/09/29 06:04:55;;;;;;;25.85;13.48;;;;;;;8.24;75.33;100559.02;254829;1107;115039;-68
2021/09/29 06:10:01;;;;;;;30.55;12.00;;;;;;;8.40;75.83;100561.34;254993;1107;115188;-67
2021/09/29 06:15:06;;;;;;;22.40;11.73;;;;;;;8.58;75.25;100563.41;254714;1107;115393;-67
2021/09/29 06:20:11;;;;;;;24.45;13.68;;;;;;;8.73;75.03;100560.59;253738;1107;115764;-67
2021/09/29 06:25:17;;;;;;;27.60;13.10;;;;;;;8.88;74.97;100550.56;253475;1107;115294;-67
2021/09/29 06:30:20;;;;;;;25.15;15.80;;;;;;;9.02;74.46;100546.08;253911;1103;117051;-67
2021/09/29 06:35:28;;;;;;;23.02;12.93;;;;;;;9.17;74.89;100548.55;254002;1107;116019;-67
2021/09/29 06:40:33;;;;;;;21.00;12.58;;;;;;;9.35;74.90;100540.74;253719;1107;115775;-67
2021/09/29 06:45:40;;;;;;;21.43;13.40;;;;;;;9.62;74.50;100537.00;254453;1107;116372;-67
2021/09/29 06:50:44;;;;;;;21.45;14.00;;;;;;;9.86;74.08;100538.14;254355;1106;115887;-67
2021/09/29 06:55:51;;;;;;;18.40;14.10;;;;;;;10.14;73.81;100535.98;254143;1102;116458;-67
2021/09/29 07:00:56;;;;;;;13.83;11.85;;;;;;;10.38;73.95;100534.47;253604;1102;116188;-67
2021/09/29 07:06:00;;;;;;;24.03;11.57;;;;;;;10.73;73.35;100526.83;253821;1107;116442;-67
2021/09/29 07:11:05;;;;;;;16.28;11.68;;;;;;;11.10;72.98;100525.11;254093;1107;115149;-68
2021/09/29 07:16:09;;;;;;;25.45;13.25;;;;;;;11.22;72.40;100529.73;254211;1107;116149;-68
2021/09/29 07:21:14;;;;;;;20.03;12.93;;;;;;;11.31;72.16;100520.42;255888;1107;115628;-70
2021/09/29 07:26:18;;;;;;;25.20;12.03;;;;;;;11.42;71.59;100517.00;253747;1107;115332;-68
2021/09/29 07:31:23;;;;;;;19.53;11.30;;;;;;;11.45;71.40;100509.38;253815;1107;116019;-68
2021/09/29 07:36:26;;;;;;;18.73;11.73;;;;;;;11.50;71.26;100515.91;254336;1107;115390;-68
2021/09/29 07:41:30;;;;;;;24.38;10.15;;;;;;;11.54;71.20;100520.59;255925;1107;115390;-69
2021/09/29 07:46:35;;;;;;;13.85;10.10;;;;;;;11.64;70.90;100510.19;255889;1107;116591;-69
2021/09/29 07:51:40;;;;;;;15.90;9.60;;;;;;;11.74;70.77;100505.15;254234;1107;115951;-68
2021/09/29 07:56:44;;;;;;;14.08;9.58;;;;;;;11.93;70.45;100497.13;254685;1107;116287;-68
2021/09/29 08:01:48;;;;;;;17.30;9.57;;;;;;;12.06;70.36;100494.30;254695;1107;115269;-68
2021/09/29 08:06:53;;;;;;;15.77;10.77;;;;;;;12.23;69.76;100486.48;255803;1103;115744;-68
2021/09/29 08:11:55;;;;;;;11.45;7.85;;;;;;;12.43;69.59;100482.47;255163;1106;115674;-68
2021/09/29 08:16:59;;;;;;;13.65;8.40;;;;;;;12.61;69.09;100486.92;254528;1107;114989;-68
2021/09/29 08:22:06;;;;;;;14.00;8.00;;;;;;;12.78;68.74;100479.05;254794;1103;115610;-68
2021/09/29 08:27:23;;;;;;;14.38;7.95;;;;;;;12.98;68.57;100459.98;253959;1102;115783;-68
2021/09/29 08:32:58;;;;;;;11.45;7.80;;;;;;;13.25;68.43;100449.63;253851;1107;116033;-68
2021/09/29 08:43:33;;;;;;;8.38;6.45;;;;;;;13.79;67.78;100427.72;254007;1102;115906;-68
2021/09/29 08:49:03;;;;;;;12.63;7.90;;;;;;;13.98;66.94;100427.54;254991;1107;115890;-68
2021/09/29 09:15:33;;;;;;;9.77;7.07;;;;;;;14.87;64.33;100407.05;254631;1107;115634;-68
2021/09/29 09:20:45;;;;;;;7.05;6.10;;;;;;;15.18;65.07;100402.09;254496;1102;115913;-68
2021/09/29 09:25:48;;;;;;;8.73;7.05;;;;;;;15.47;64.08;100407.04;254923;1107;115780;-69
2021/09/29 09:30:52;;;;;;;6.93;5.57;;;;;;;15.76;64.11;100402.30;254941;1106;116360;-68
2021/09/29 09:35:55;;;;;;;6.85;6.25;;;;;;;16.07;63.86;100400.73;255287;1106;116053;-68
2021/09/29 09:41:03;;;;;;;11.10;6.70;;;;;;;16.34;62.96;100399.88;255607;1107;120968;-69
2021/09/29 09:46:16;;;;;;;10.15;7.25;;;;;;;16.46;62.60;100404.03;254501;1107;116033;-69
2021/09/29 09:51:19;;;;;;;15.83;6.40;;;;;;;16.51;61.96;100409.43;256387;1107;116799;-70
2021/09/29 09:56:26;;;;;;;8.03;7.23;;;;;;;16.72;62.01;100402.37;254358;1107;115951;-69
2021/09/29 10:01:31;;;;;;;9.65;7.50;;;;;;;16.87;61.30;100414.30;255208;1106;116759;-69
2021/09/29 10:06:36;;;;;;;12.85;7.13;;;;;;;17.15;62.06;100400.45;253659;1107;116144;-69
2021/09/29 10:27:56;;;;;;;8.65;6.78;;;;;;;17.21;60.57;100377.86;254415;1107;115686;-68
2021/09/29 10:33:03;;;;;;;13.23;9.80;;;;;;;17.40;60.39;100372.83;254196;1107;115660;-68
2021/09/29 11:05:52;;;;;;;8.85;8.00;;;;;;;18.06;59.97;100346.01;254145;1107;115373;-69
2021/09/29 11:32:48;;;;;;;11.68;8.38;;;;;;;17.64;58.72;100320.06;254695;1107;114920;-68
2021/09/29 12:10:57;;;;;;;9.85;7.85;;;;;;;17.07;60.13;100312.89;253994;1107;115265;-70
2021/09/29 12:16:02;;;;;;;13.65;7.83;;;;;;;16.96;59.96;100311.22;253459;1106;114960;-71
2021/09/29 12:21:05;;;;;;;8.63;7.25;;;;;;;16.92;60.49;100320.08;253359;1107;115619;-71
2021/09/29 12:26:24;;;;;;;13.40;8.20;;;;;;;16.88;60.49;100316.28;253317;1107;115519;-70
2021/09/29 12:31:46;;;;;;;8.10;6.70;;;;;;;16.75;60.09;100313.01;253258;1107;115637;-71
2021/09/29 12:37:12;;;;;;;11.75;7.20;;;;;;;16.64;60.43;100310.51;253929;1106;115224;-70
2021/09/29 12:42:31;;;;;;;11.00;8.53;;;;;;;16.57;60.16;100313.39;253634;1106;115453;-69
2021/09/29 12:47:43;;;;;;;10.53;7.20;;;;;;;16.35;60.52;100310.84;253401;1107;208936;-69
2021/09/29 12:53:03;;;;;;;9.18;6.68;;;;;;;16.22;60.97;100315.84;253043;1107;115797;-71
2021/09/29 12:58:12;;;;;;;12.55;9.15;;;;;;;16.06;61.04;100298.78;254352;1107;115494;-69
2021/09/29 13:03:17;;;;;;;13.93;7.80;;;;;;;15.92;61.47;100295.70;253970;1106;115504;-72
2021/09/29 13:08:22;;;;;;;13.90;8.23;;;;;;;15.78;61.62;100300.70;254730;1106;117041;-71
2021/09/29 13:13:30;;;;;;;14.40;7.13;;;;;;;15.74;61.62;100306.84;253293;1107;118639;-70
2021/09/29 13:19:00;;;;;;;11.15;7.75;;;;;;;15.69;62.30;100307.60;253556;1107;116147;-70
2021/09/29 13:40:17;;;;;;;11.00;8.23;;;;;;;15.92;62.29;100300.27;253138;1100;116019;-69
2021/09/29 13:45:24;;;;;;;9.00;6.47;;;;;;;16.00;62.23;100287.17;255256;1103;118056;-69
2021/09/29 13:50:29;;;;;;;7.03;5.93;;;;;;;16.02;61.88;100284.23;253527;1107;115783;-69
2021/09/29 13:55:33;;;;;;;6.38;5.73;;;;;;;15.97;62.10;100292.25;256362;1107;117158;-69
2021/09/29 14:33:35;;;;;;;9.98;7.93;;;;;;;15.88;62.38;100267.73;253589;1107;115449;-69
2021/09/29 14:38:39;;;;;;;10.73;7.35;;;;;;;15.94;62.53;100272.06;253190;1106;115507;-69
2021/09/29 14:43:43;;;;;;;16.93;9.30;;;;;;;16.05;62.29;100262.20;254054;1106;116341;-69
2021/09/29 14:48:48;;;;;;;12.23;7.78;;;;;;;16.07;62.49;100260.07;253486;1107;117937;-70
2021/09/29 14:53:56;;;;;;;12.33;8.98;;;;;;;15.95;62.15;100248.67;253028;1107;116060;-69
2021/09/29 14:59:01;;;;;;;6.55;5.93;;;;;;;15.81;62.05;100251.00;253272;1107;116149;-70
2021/09/29 15:04:06;;;;;;;10.08;7.33;;;;;;;15.60;62.07;100244.63;253782;1107;115866;-69
2021/09/29 15:09:11;;;;;;;;;;;;;;;15.33;62.64;100249.16;253119;1106;117211;-71
2021/09/29 15:14:19;;;;;;;12.50;8.23;;;;;;;15.11;63.25;100241.16;253957;1107;104100;-70
2021/09/29 15:24:40;;;;;;;12.28;9.23;;;;;;;14.86;63.64;100233.63;253376;1107;115908;-68
2021/09/29 15:51:13;;;;;;;13.78;8.70;;;;;;;14.41;64.90;100245.39;255904;1107;115193;-69
2021/09/29 16:01:48;;;;;;;18.43;10.08;;;;;;;14.35;65.39;100232.96;256172;1107;115547;-67
2021/09/29 16:07:04;;;;;;;20.18;9.78;;;;;;;14.38;65.30;100237.80;256308;1106;116380;-68
2021/09/29 16:17:44;;;;;;;15.73;10.03;;;;;;;14.40;65.68;100245.61;253973;1107;115909;-68
2021/09/29 16:33:50;;;;;;;16.20;10.78;;;;;;;14.22;66.23;100248.58;253505;1106;116168;-67
2021/09/29 16:38:55;;;;;;;16.80;10.23;;;;;;;14.22;66.47;100260.11;254165;1107;115719;-67
2021/09/29 16:44:08;;;;;;;17.60;11.00;;;;;;;14.13;66.56;100248.98;253287;1102;115968;-68
2021/09/29 16:49:18;;;;;;;17.97;10.83;;;;;;;14.05;66.73;100253.97;254969;1107;115896;-68
2021/09/29 16:54:25;;;;;;;15.15;10.75;;;;;;;14.01;67.23;100252.83;254154;1107;116510;-68
2021/09/29 16:59:42;;;;;;;21.40;11.63;;;;;;;14.04;67.08;100246.98;253694;1102;115612;-68
2021/09/29 17:04:48;;;;;;;17.90;13.40;;;;;;;14.05;67.53;100256.65;254768;1107;116175;-68
2021/09/29 17:09:54;;;;;;;14.63;9.53;;;;;;;14.04;67.75;100255.84;254055;1103;115968;-69
2021/09/29 17:14:59;;;;;;;13.55;11.48;;;;;;;13.99;67.39;100255.75;253983;1107;115926;-68
2021/09/29 17:20:05;;;;;;;20.65;12.70;;;;;;;13.99;67.71;100257.63;254512;1107;115401;-69
2021/09/29 17:25:14;;;;;;;18.35;14.33;;;;;;;14.02;68.09;100257.95;254384;1106;115726;-68
2021/09/29 17:30:23;;;;;;;19.10;12.33;;;;;;;14.08;67.92;100269.53;254802;1106;115339;-69
2021/09/29 17:48:02;;;;;;;19.05;13.03;;;;;;;14.03;68.21;100251.53;255387;1106;115934;-67
2021/09/29 17:56:58;;;;;;;20.78;14.68;;;;;;;14.21;68.50;100269.22;255234;1107;116284;-69
2021/09/29 18:02:08;;;;;;;24.40;12.33;;;;;;;14.20;68.47;100264.91;256151;1106;115721;-70
2021/09/29 18:07:59;;;;;;;18.38;13.28;;;;;;;14.24;68.30;100274.09;256385;1106;115791;-69
2021/09/29 18:12:39;;;;;;;26.00;14.25;;;;;;;14.29;68.76;100271.48;255925;1107;117280;-70
2021/09/29 18:17:45;;;;;;;21.08;14.15;;;;;;;14.34;68.56;100278.80;253434;1107;115583;-70
2021/09/29 18:22:53;;;;;;;26.23;14.40;;;;;;;14.37;68.49;100281.78;253925;1106;115709;-69
2021/09/29 18:27:57;;;;;;;19.48;14.93;;;;;;;14.37;68.49;100289.82;254088;1107;115557;-69
2021/09/29 18:33:05;;;;;;;19.00;12.70;;;;;;;14.31;68.63;100285.47;254263;1107;115556;-69
2021/09/29 18:38:16;;;;;;;23.37;12.70;;;;;;;14.27;68.56;100283.52;253789;1107;115469;-69
2021/09/29 18:43:42;;;;;;;26.03;14.13;;;;;;;14.21;68.94;100277.26;253333;1107;115525;-69
2021/09/29 18:48:53;;;;;;;21.33;13.23;;;;;;;14.21;69.06;100277.26;253300;1105;115770;-69
2021/09/29 19:09:44;;;;;;;19.75;14.20;;;;;;;14.22;69.14;100278.88;253174;1107;115750;-69
2021/09/29 19:14:48;;;;;;;21.67;14.83;;;;;;;14.24;69.66;100284.81;253443;1107;115635;-69
2021/09/29 19:19:52;;;;;;;28.07;15.27;;;;;;;14.26;69.69;100280.02;253601;1107;115979;-69
2021/09/29 19:25:00;;;;;;;19.67;15.30;;;;;;;14.22;69.55;100286.11;253749;1107;115968;-69
2021/09/29 19:30:05;;;;;;;22.65;13.40;;;;;;;14.20;69.49;100283.67;253461;1106;115973;-67
2021/09/29 19:35:10;;;;;;;25.90;14.40;;;;;;;14.20;69.68;100283.67;253704;1103;115723;-66
2021/09/29 19:40:17;;;;;;;19.13;13.55;;;;;;;14.21;69.67;100279.13;255754;1107;115153;-67
2021/09/29 19:45:23;;;;;;;21.30;14.73;;;;;;;14.21;70.15;100279.13;255918;1107;115520;-69
2021/09/29 20:12:01;;;;;;;22.90;16.75;;;;;;;14.33;70.66;100293.27;253477;1107;115443;-67
2021/09/29 20:17:06;;;;;;;19.33;12.90;;;;;;;14.27;70.32;100289.69;255865;1107;115313;-68
2021/09/29 20:22:11;;;;;;;23.53;15.23;;;;;;;14.24;70.44;100290.18;253683;1107;115759;-66
2021/09/29 20:27:16;;;;;;;17.55;14.08;;;;;;;14.26;70.61;100288.06;253799;1106;116164;-69
2021/09/29 20:32:22;;;;;;;25.80;14.28;;;;;;;14.25;70.03;100281.08;253995;1106;115482;-68
2021/09/29 20:48:01;;;;;;;19.85;15.08;;;;;;;14.03;70.68;100282.89;254173;1107;115582;-67
2021/09/29 20:53:09;;;;;;;25.48;15.08;;;;;;;13.97;70.73;100284.67;253279;1107;116317;-67
2021/09/29 20:58:17;;;;;;;20.43;14.48;;;;;;;13.92;70.68;100281.09;253374;1107;116595;-67
2021/09/29 21:03:24;;;;;;;23.98;16.05;;;;;;;13.84;70.63;100276.93;253705;1103;116659;-67
2021/09/29 21:08:33;;;;;;;22.08;15.15;;;;;;;13.75;71.00;100281.91;253769;1107;116873;-67
2021/09/29 21:13:40;;;;;;;22.03;15.18;;;;;;;13.72;70.96;100282.38;253731;1107;116331;-69
2021/09/29 21:18:46;;;;;;;;;;;;;;;13.70;71.19;100289.84;253949;1106;116468;-68
2021/09/29 21:23:53;;;;;;;21.20;14.47;;;;;;;13.64;71.27;100285.45;255083;1107;104396;-67
2021/09/29 21:28:59;;;;;;;18.40;14.33;;;;;;;13.62;71.60;100292.91;253698;1107;116135;-68
2021/09/29 21:34:06;;;;;;;26.30;15.90;;;;;;;13.57;71.44;100286.64;254601;1107;116210;-70
2021/09/29 21:39:22;;;;;;;21.35;16.78;;;;;;;13.54;71.70;100290.61;253260;1107;116840;-67
2021/09/29 23:05:30;;;;;;;20.17;14.73;;;;;;;13.51;72.71;100325.09;253939;1107;117209;-67
2021/09/29 23:10:55;;;;;;;23.08;15.25;;;;;;;13.51;73.22;100333.95;254619;1106;116322;-69
2021/09/29 23:32:33;;;;;;;19.23;12.90;;;;;;;13.40;73.16;100346.34;254902;1107;116480;-70
2021/09/29 23:37:47;;;;;;;20.68;15.83;;;;;;;13.40;73.21;100337.50;254290;1107;116160;-68
2021/09/29 23:42:55;;;;;;;25.37;15.00;;;;;;;13.43;73.92;100351.23;253540;1107;116464;-68
2021/09/29 23:47:58;;;;;;;21.10;13.85;;;;;;;13.46;73.96;100352.59;253934;1107;116034;-69
2021/09/29 23:53:02;;;;;;;18.78;14.08;;;;;;;13.43;73.73;100358.45;254377;1107;116484;-70
2021/09/29 23:58:06;;;;;;;17.65;13.88;;;;;;;13.42;73.67;100351.47;253289;1107;116691;-70
